sensor_id;sensor_type;location;lat;lon;timestamp;P1;durP1;ratioP1;P2;durP2;ratioP2
12369;SDS011;6249;52.128;9.986;2023-01-10T00:00:22;22.97;;;10.07;;
12369;SDS011;6249;52.128;9.986;2023-01-10T00:03:46;14.53;;;8.27;;
12369;SDS011;6249;52.128;9.986;2023-01-10T00:07:10;16.67;;;9.47;;
12369;SDS011;6249;52.128;9.986;2023-01-10T00:10:30;23.03;;;9.37;;
12369;SDS011;6249;52.128;9.986;2023-01-10T00:13:52;15.40;;;7.40;;
12369;SDS011;6249;52.128;9.986;2023-01-10T00:17:13;19.23;;;6.83;;
12369;SDS011;6249;52.128;9.986;2023-01-10T00:20:34;19.27;;;8.43;;
12369;SDS011;6249;52.128;9.986;2023-01-10T00:23:54;15.13;;;8.50;;
12369;SDS011;6249;52.128;9.986;2023-01-10T00:27:34;17.93;;;8.20;;
12369;SDS011;6249;52.128;9.986;2023-01-10T00:30:55;13.37;;;7.47;;
12369;SDS011;6249;52.128;9.986;2023-01-10T00:34:25;18.33;;;8.30;;
12369;SDS011;6249;52.128;9.986;2023-01-10T00:37:49;13.07;;;7.30;;
12369;SDS011;6249;52.128;9.986;2023-01-10T00:41:11;19.60;;;6.90;;
12369;SDS011;6249;52.128;9.986;2023-01-10T00:44:50;15.60;;;8.00;;
12369;SDS011;6249;52.128;9.986;2023-01-10T00:48:11;20.10;;;8.17;;
12369;SDS011;6249;52.128;9.986;2023-01-10T00:51:37;23.23;;;8.53;;
12369;SDS011;6249;52.128;9.986;2023-01-10T00:54:57;16.13;;;8.63;;
12369;SDS011;6249;52.128;9.986;2023-01-10T00:58:18;14.10;;;7.10;;
12369;SDS011;6249;52.128;9.986;2023-01-10T01:01:39;15.63;;;7.70;;
12369;SDS011;6249;52.128;9.986;2023-01-10T01:05:00;16.53;;;8.53;;
12369;SDS011;6249;52.128;9.986;2023-01-10T01:08:21;17.10;;;7.60;;
12369;SDS011;6249;52.128;9.986;2023-01-10T01:11:41;17.93;;;9.20;;
12369;SDS011;6249;52.128;9.986;2023-01-10T01:15:02;19.70;;;8.93;;
12369;SDS011;6249;52.128;9.986;2023-01-10T01:18:25;15.97;;;8.60;;
12369;SDS011;6249;52.128;9.986;2023-01-10T01:21:46;23.73;;;9.80;;
12369;SDS011;6249;52.128;9.986;2023-01-10T01:25:12;13.53;;;7.90;;
12369;SDS011;6249;52.128;9.986;2023-01-10T01:28:32;15.60;;;8.27;;
12369;SDS011;6249;52.128;9.986;2023-01-10T01:31:53;16.93;;;8.50;;
12369;SDS011;6249;52.128;9.986;2023-01-10T01:35:14;19.40;;;9.43;;
12369;SDS011;6249;52.128;9.986;2023-01-10T01:38:36;14.87;;;8.60;;
12369;SDS011;6249;52.128;9.986;2023-01-10T01:41:57;18.03;;;8.50;;
12369;SDS011;6249;52.128;9.986;2023-01-10T01:48:42;18.30;;;9.40;;
12369;SDS011;6249;52.128;9.986;2023-01-10T01:52:06;19.47;;;10.10;;
12369;SDS011;6249;52.128;9.986;2023-01-10T01:55:32;21.20;;;10.43;;
12369;SDS011;6249;52.128;9.986;2023-01-10T01:58:56;21.00;;;12.63;;
12369;SDS011;6249;52.128;9.986;2023-01-10T02:02:22;18.70;;;11.47;;
12369;SDS011;6249;52.128;9.986;2023-01-10T02:05:52;18.87;;;11.13;;
12369;SDS011;6249;52.128;9.986;2023-01-10T02:09:30;23.70;;;11.30;;
12369;SDS011;6249;52.128;9.986;2023-01-10T02:13:08;22.93;;;11.90;;
12369;SDS011;6249;52.128;9.986;2023-01-10T02:16:36;17.93;;;9.27;;
12369;SDS011;6249;52.128;9.986;2023-01-10T02:19:58;13.67;;;7.30;;
12369;SDS011;6249;52.128;9.986;2023-01-10T02:26:57;19.30;;;9.70;;
12369;SDS011;6249;52.128;9.986;2023-01-10T02:45:27;18.27;;;9.57;;
12369;SDS011;6249;52.128;9.986;2023-01-10T02:48:53;19.20;;;9.73;;
12369;SDS011;6249;52.128;9.986;2023-01-10T02:52:22;15.67;;;9.60;;
12369;SDS011;6249;52.128;9.986;2023-01-10T02:59:34;20.00;;;7.70;;
12369;SDS011;6249;52.128;9.986;2023-01-10T03:06:50;17.00;;;7.40;;
12369;SDS011;6249;52.128;9.986;2023-01-10T03:13:50;23.33;;;7.77;;
12369;SDS011;6249;52.128;9.986;2023-01-10T03:17:16;15.07;;;6.10;;
12369;SDS011;6249;52.128;9.986;2023-01-10T03:20:40;11.30;;;5.40;;
12369;SDS011;6249;52.128;9.986;2023-01-10T03:24:09;12.40;;;5.10;;
12369;SDS011;6249;52.128;9.986;2023-01-10T03:27:47;12.80;;;5.30;;
12369;SDS011;6249;52.128;9.986;2023-01-10T03:31:13;13.97;;;4.30;;
12369;SDS011;6249;52.128;9.986;2023-01-10T03:34:41;8.97;;;3.83;;
12369;SDS011;6249;52.128;9.986;2023-01-10T03:38:05;18.87;;;5.07;;
12369;SDS011;6249;52.128;9.986;2023-01-10T03:45:26;10.20;;;3.13;;
12369;SDS011;6249;52.128;9.986;2023-01-10T03:48:55;12.30;;;3.50;;
12369;SDS011;6249;52.128;9.986;2023-01-10T03:52:17;5.93;;;1.83;;
12369;SDS011;6249;52.128;9.986;2023-01-10T03:55:39;10.03;;;2.40;;
12369;SDS011;6249;52.128;9.986;2023-01-10T03:59:01;7.23;;;2.23;;
12369;SDS011;6249;52.128;9.986;2023-01-10T04:02:25;7.20;;;2.23;;
12369;SDS011;6249;52.128;9.986;2023-01-10T04:05:47;10.80;;;2.87;;
12369;SDS011;6249;52.128;9.986;2023-01-10T04:09:08;9.80;;;3.30;;
12369;SDS011;6249;52.128;9.986;2023-01-10T04:12:30;13.37;;;2.37;;
12369;SDS011;6249;52.128;9.986;2023-01-10T04:15:52;13.07;;;3.07;;
12369;SDS011;6249;52.128;9.986;2023-01-10T04:19:13;8.30;;;3.13;;
12369;SDS011;6249;52.128;9.986;2023-01-10T04:22:34;9.73;;;3.00;;
12369;SDS011;6249;52.128;9.986;2023-01-10T04:25:54;11.50;;;2.77;;
12369;SDS011;6249;52.128;9.986;2023-01-10T04:29:20;9.50;;;2.40;;
12369;SDS011;6249;52.128;9.986;2023-01-10T04:32:43;9.87;;;2.70;;
12369;SDS011;6249;52.128;9.986;2023-01-10T04:36:03;12.97;;;3.33;;
12369;SDS011;6249;52.128;9.986;2023-01-10T04:39:24;14.00;;;3.20;;
12369;SDS011;6249;52.128;9.986;2023-01-10T04:42:47;9.13;;;3.53;;
12369;SDS011;6249;52.128;9.986;2023-01-10T04:46:08;14.27;;;3.17;;
12369;SDS011;6249;52.128;9.986;2023-01-10T04:49:31;12.73;;;3.70;;
12369;SDS011;6249;52.128;9.986;2023-01-10T04:52:54;11.60;;;3.70;;
12369;SDS011;6249;52.128;9.986;2023-01-10T04:56:15;14.50;;;4.10;;
12369;SDS011;6249;52.128;9.986;2023-01-10T04:59:37;20.30;;;4.70;;
12369;SDS011;6249;52.128;9.986;2023-01-10T05:02:58;20.17;;;4.93;;
12369;SDS011;6249;52.128;9.986;2023-01-10T05:06:19;16.17;;;4.40;;
12369;SDS011;6249;52.128;9.986;2023-01-10T05:09:40;15.70;;;4.40;;
12369;SDS011;6249;52.128;9.986;2023-01-10T05:13:01;17.17;;;5.43;;
12369;SDS011;6249;52.128;9.986;2023-01-10T05:16:24;22.33;;;5.20;;
12369;SDS011;6249;52.128;9.986;2023-01-10T05:19:48;17.70;;;6.43;;
12369;SDS011;6249;52.128;9.986;2023-01-10T05:23:11;26.90;;;7.07;;
12369;SDS011;6249;52.128;9.986;2023-01-10T05:26:31;25.87;;;6.60;;
12369;SDS011;6249;52.128;9.986;2023-01-10T05:29:52;20.20;;;5.97;;
12369;SDS011;6249;52.128;9.986;2023-01-10T05:33:13;22.63;;;6.43;;
12369;SDS011;6249;52.128;9.986;2023-01-10T05:36:33;27.07;;;7.27;;
12369;SDS011;6249;52.128;9.986;2023-01-10T05:39:54;34.30;;;6.90;;
12369;SDS011;6249;52.128;9.986;2023-01-10T05:43:15;19.07;;;5.70;;
12369;SDS011;6249;52.128;9.986;2023-01-10T05:46:35;27.60;;;6.73;;
12369;SDS011;6249;52.128;9.986;2023-01-10T05:49:56;25.33;;;7.10;;
12369;SDS011;6249;52.128;9.986;2023-01-10T05:53:17;15.87;;;6.43;;
12369;SDS011;6249;52.128;9.986;2023-01-10T05:56:38;15.33;;;6.03;;
12369;SDS011;6249;52.128;9.986;2023-01-10T05:59:58;21.20;;;5.90;;
12369;SDS011;6249;52.128;9.986;2023-01-10T06:03:19;18.13;;;6.77;;
12369;SDS011;6249;52.128;9.986;2023-01-10T06:06:43;30.77;;;7.10;;
12369;SDS011;6249;52.128;9.986;2023-01-10T06:10:04;21.77;;;6.90;;
12369;SDS011;6249;52.128;9.986;2023-01-10T06:13:27;27.10;;;5.97;;
12369;SDS011;6249;52.128;9.986;2023-01-10T06:16:48;23.33;;;7.40;;
12369;SDS011;6249;52.128;9.986;2023-01-10T06:20:09;23.00;;;7.07;;
12369;SDS011;6249;52.128;9.986;2023-01-10T06:23:31;19.50;;;6.70;;
12369;SDS011;6249;52.128;9.986;2023-01-10T06:26:54;25.33;;;7.57;;
12369;SDS011;6249;52.128;9.986;2023-01-10T06:30:15;26.47;;;6.13;;
12369;SDS011;6249;52.128;9.986;2023-01-10T06:33:35;17.47;;;5.90;;
12369;SDS011;6249;52.128;9.986;2023-01-10T06:37:00;16.77;;;5.70;;
12369;SDS011;6249;52.128;9.986;2023-01-10T06:40:23;20.13;;;5.97;;
12369;SDS011;6249;52.128;9.986;2023-01-10T06:43:45;25.57;;;7.60;;
12369;SDS011;6249;52.128;9.986;2023-01-10T06:47:09;21.97;;;6.97;;
12369;SDS011;6249;52.128;9.986;2023-01-10T06:50:29;18.17;;;6.17;;
12369;SDS011;6249;52.128;9.986;2023-01-10T06:53:50;19.97;;;6.63;;
12369;SDS011;6249;52.128;9.986;2023-01-10T06:57:13;22.50;;;6.10;;
12369;SDS011;6249;52.128;9.986;2023-01-10T07:00:34;23.97;;;6.00;;
12369;SDS011;6249;52.128;9.986;2023-01-10T07:03:57;23.97;;;6.27;;
12369;SDS011;6249;52.128;9.986;2023-01-10T07:07:20;23.40;;;6.20;;
12369;SDS011;6249;52.128;9.986;2023-01-10T07:10:43;29.57;;;6.80;;
12369;SDS011;6249;52.128;9.986;2023-01-10T07:14:03;18.13;;;5.90;;
12369;SDS011;6249;52.128;9.986;2023-01-10T07:17:26;14.67;;;5.10;;
12369;SDS011;6249;52.128;9.986;2023-01-10T07:20:48;21.40;;;5.30;;
12369;SDS011;6249;52.128;9.986;2023-01-10T07:24:11;17.07;;;5.97;;
12369;SDS011;6249;52.128;9.986;2023-01-10T07:27:32;27.33;;;5.87;;
12369;SDS011;6249;52.128;9.986;2023-01-10T07:30:53;16.80;;;6.00;;
12369;SDS011;6249;52.128;9.986;2023-01-10T07:34:13;19.17;;;6.97;;
12369;SDS011;6249;52.128;9.986;2023-01-10T07:37:34;29.03;;;6.90;;
12369;SDS011;6249;52.128;9.986;2023-01-10T07:40:57;24.63;;;7.80;;
12369;SDS011;6249;52.128;9.986;2023-01-10T07:44:21;17.97;;;6.57;;
12369;SDS011;6249;52.128;9.986;2023-01-10T07:47:46;20.57;;;7.73;;
12369;SDS011;6249;52.128;9.986;2023-01-10T07:51:07;25.67;;;8.13;;
12369;SDS011;6249;52.128;9.986;2023-01-10T07:54:28;30.30;;;8.60;;
12369;SDS011;6249;52.128;9.986;2023-01-10T07:57:51;21.43;;;8.37;;
12369;SDS011;6249;52.128;9.986;2023-01-10T08:01:12;30.50;;;7.23;;
12369;SDS011;6249;52.128;9.986;2023-01-10T08:04:35;20.90;;;8.43;;
12369;SDS011;6249;52.128;9.986;2023-01-10T08:08:02;24.90;;;8.73;;
12369;SDS011;6249;52.128;9.986;2023-01-10T08:11:29;24.50;;;8.10;;
12369;SDS011;6249;52.128;9.986;2023-01-10T08:14:50;19.40;;;7.00;;
12369;SDS011;6249;52.128;9.986;2023-01-10T08:18:11;21.63;;;7.73;;
12369;SDS011;6249;52.128;9.986;2023-01-10T08:21:34;25.47;;;7.83;;
12369;SDS011;6249;52.128;9.986;2023-01-10T08:24:59;20.23;;;7.70;;
12369;SDS011;6249;52.128;9.986;2023-01-10T08:28:20;26.90;;;9.07;;
12369;SDS011;6249;52.128;9.986;2023-01-10T08:31:41;26.73;;;9.50;;
12369;SDS011;6249;52.128;9.986;2023-01-10T08:35:01;27.57;;;8.70;;
12369;SDS011;6249;52.128;9.986;2023-01-10T08:38:22;25.77;;;8.97;;
12369;SDS011;6249;52.128;9.986;2023-01-10T08:41:43;37.77;;;9.70;;
12369;SDS011;6249;52.128;9.986;2023-01-10T08:45:03;24.97;;;7.60;;
12369;SDS011;6249;52.128;9.986;2023-01-10T08:48:29;20.13;;;7.57;;
12369;SDS011;6249;52.128;9.986;2023-01-10T08:51:49;24.40;;;8.23;;
12369;SDS011;6249;52.128;9.986;2023-01-10T08:55:10;20.13;;;7.37;;
12369;SDS011;6249;52.128;9.986;2023-01-10T08:58:31;25.87;;;7.10;;
12369;SDS011;6249;52.128;9.986;2023-01-10T09:01:54;27.13;;;7.37;;
12369;SDS011;6249;52.128;9.986;2023-01-10T09:05:17;23.33;;;6.63;;
12369;SDS011;6249;52.128;9.986;2023-01-10T09:08:40;19.87;;;6.83;;
12369;SDS011;6249;52.128;9.986;2023-01-10T09:12:01;23.87;;;6.27;;
12369;SDS011;6249;52.128;9.986;2023-01-10T09:15:41;19.13;;;6.93;;
12369;SDS011;6249;52.128;9.986;2023-01-10T09:19:07;19.80;;;5.80;;
12369;SDS011;6249;52.128;9.986;2023-01-10T09:22:27;21.73;;;4.90;;
12369;SDS011;6249;52.128;9.986;2023-01-10T09:25:49;16.87;;;5.13;;
12369;SDS011;6249;52.128;9.986;2023-01-10T09:29:13;18.73;;;5.43;;
12369;SDS011;6249;52.128;9.986;2023-01-10T09:32:33;14.97;;;5.27;;
12369;SDS011;6249;52.128;9.986;2023-01-10T09:35:56;16.57;;;5.30;;
12369;SDS011;6249;52.128;9.986;2023-01-10T09:39:20;14.23;;;4.03;;
12369;SDS011;6249;52.128;9.986;2023-01-10T09:53:42;36.97;;;6.37;;
12369;SDS011;6249;52.128;9.986;2023-01-10T09:57:08;23.90;;;5.80;;
12369;SDS011;6249;52.128;9.986;2023-01-10T10:00:37;14.27;;;5.30;;
12369;SDS011;6249;52.128;9.986;2023-01-10T10:07:39;20.33;;;6.70;;
12369;SDS011;6249;52.128;9.986;2023-01-10T10:22:15;28.93;;;7.70;;
12369;SDS011;6249;52.128;9.986;2023-01-10T10:26:00;32.47;;;7.10;;
12369;SDS011;6249;52.128;9.986;2023-01-10T10:36:41;22.17;;;6.30;;
12369;SDS011;6249;52.128;9.986;2023-01-10T10:43:35;23.30;;;7.30;;
12369;SDS011;6249;52.128;9.986;2023-01-10T10:46:59;53.10;;;17.47;;
12369;SDS011;6249;52.128;9.986;2023-01-10T10:50:22;30.13;;;6.83;;
12369;SDS011;6249;52.128;9.986;2023-01-10T10:53:50;26.00;;;6.30;;
12369;SDS011;6249;52.128;9.986;2023-01-10T10:57:10;25.30;;;6.40;;
12369;SDS011;6249;52.128;9.986;2023-01-10T11:00:34;21.67;;;5.80;;
12369;SDS011;6249;52.128;9.986;2023-01-10T11:03:56;22.13;;;6.30;;
12369;SDS011;6249;52.128;9.986;2023-01-10T11:07:19;25.83;;;6.00;;
12369;SDS011;6249;52.128;9.986;2023-01-10T11:10:48;30.00;;;6.90;;
12369;SDS011;6249;52.128;9.986;2023-01-10T11:14:13;16.00;;;6.43;;
12369;SDS011;6249;52.128;9.986;2023-01-10T11:17:38;18.80;;;6.00;;
12369;SDS011;6249;52.128;9.986;2023-01-10T11:28:22;19.00;;;4.47;;
12369;SDS011;6249;52.128;9.986;2023-01-10T11:31:48;19.00;;;5.80;;
12369;SDS011;6249;52.128;9.986;2023-01-10T11:35:18;16.07;;;5.07;;
12369;SDS011;6249;52.128;9.986;2023-01-10T11:38:57;24.80;;;5.80;;
12369;SDS011;6249;52.128;9.986;2023-01-10T11:45:43;23.90;;;5.90;;
12369;SDS011;6249;52.128;9.986;2023-01-10T11:49:04;28.80;;;6.00;;
12369;SDS011;6249;52.128;9.986;2023-01-10T11:52:29;15.43;;;4.10;;
12369;SDS011;6249;52.128;9.986;2023-01-10T11:55:50;21.20;;;4.77;;
12369;SDS011;6249;52.128;9.986;2023-01-10T11:59:14;16.23;;;4.50;;
12369;SDS011;6249;52.128;9.986;2023-01-10T12:02:40;17.13;;;4.33;;
12369;SDS011;6249;52.128;9.986;2023-01-10T12:06:05;18.03;;;4.93;;
12369;SDS011;6249;52.128;9.986;2023-01-10T12:12:56;15.03;;;3.90;;
12369;SDS011;6249;52.128;9.986;2023-01-10T12:19:44;16.63;;;4.97;;
12369;SDS011;6249;52.128;9.986;2023-01-10T12:23:18;33.10;;;5.57;;
12369;SDS011;6249;52.128;9.986;2023-01-10T12:26:41;14.50;;;4.33;;
12369;SDS011;6249;52.128;9.986;2023-01-10T12:30:10;20.90;;;4.60;;
12369;SDS011;6249;52.128;9.986;2023-01-10T12:33:40;18.00;;;5.03;;
12369;SDS011;6249;52.128;9.986;2023-01-10T12:40:49;22.80;;;4.90;;
12369;SDS011;6249;52.128;9.986;2023-01-10T12:44:19;22.30;;;5.00;;
12369;SDS011;6249;52.128;9.986;2023-01-10T12:47:52;19.03;;;4.03;;
12369;SDS011;6249;52.128;9.986;2023-01-10T12:51:22;23.00;;;5.27;;
12369;SDS011;6249;52.128;9.986;2023-01-10T12:54:47;21.37;;;5.17;;
12369;SDS011;6249;52.128;9.986;2023-01-10T12:58:17;21.67;;;5.40;;
12369;SDS011;6249;52.128;9.986;2023-01-10T13:01:45;17.23;;;4.17;;
12369;SDS011;6249;52.128;9.986;2023-01-10T13:05:19;18.60;;;3.77;;
12369;SDS011;6249;52.128;9.986;2023-01-10T13:08:42;20.23;;;4.63;;
12369;SDS011;6249;52.128;9.986;2023-01-10T13:15:29;30.73;;;4.90;;
12369;SDS011;6249;52.128;9.986;2023-01-10T13:22:25;15.30;;;4.20;;
12369;SDS011;6249;52.128;9.986;2023-01-10T13:25:53;17.23;;;4.47;;
12369;SDS011;6249;52.128;9.986;2023-01-10T13:29:19;22.13;;;4.53;;
12369;SDS011;6249;52.128;9.986;2023-01-10T13:32:42;19.00;;;4.50;;
12369;SDS011;6249;52.128;9.986;2023-01-10T13:36:09;20.70;;;4.77;;
12369;SDS011;6249;52.128;9.986;2023-01-10T13:39:40;13.17;;;4.40;;
12369;SDS011;6249;52.128;9.986;2023-01-10T13:51:06;14.77;;;3.53;;
12369;SDS011;6249;52.128;9.986;2023-01-10T13:54:34;16.83;;;4.50;;
12369;SDS011;6249;52.128;9.986;2023-01-10T13:57:55;19.47;;;4.07;;
12369;SDS011;6249;52.128;9.986;2023-01-10T14:05:15;16.10;;;4.70;;
12369;SDS011;6249;52.128;9.986;2023-01-10T14:08:37;15.17;;;4.00;;
12369;SDS011;6249;52.128;9.986;2023-01-10T14:12:04;12.93;;;4.30;;
12369;SDS011;6249;52.128;9.986;2023-01-10T14:15:38;18.80;;;4.73;;
12369;SDS011;6249;52.128;9.986;2023-01-10T14:19:06;13.87;;;4.10;;
12369;SDS011;6249;52.128;9.986;2023-01-10T14:23:01;11.33;;;3.87;;
12369;SDS011;6249;52.128;9.986;2023-01-10T14:26:36;20.10;;;5.30;;
12369;SDS011;6249;52.128;9.986;2023-01-10T14:30:01;19.57;;;4.50;;
12369;SDS011;6249;52.128;9.986;2023-01-10T14:33:25;14.40;;;3.73;;
12369;SDS011;6249;52.128;9.986;2023-01-10T14:36:50;22.60;;;4.17;;
12369;SDS011;6249;52.128;9.986;2023-01-10T14:40:27;18.43;;;4.67;;
12369;SDS011;6249;52.128;9.986;2023-01-10T14:47:34;15.97;;;4.90;;
12369;SDS011;6249;52.128;9.986;2023-01-10T14:55:09;13.30;;;4.10;;
12369;SDS011;6249;52.128;9.986;2023-01-10T14:58:39;19.70;;;4.60;;
12369;SDS011;6249;52.128;9.986;2023-01-10T15:02:01;15.43;;;4.70;;
12369;SDS011;6249;52.128;9.986;2023-01-10T15:05:35;12.00;;;4.07;;
12369;SDS011;6249;52.128;9.986;2023-01-10T15:09:03;17.03;;;4.53;;
12369;SDS011;6249;52.128;9.986;2023-01-10T15:12:26;12.83;;;4.20;;
12369;SDS011;6249;52.128;9.986;2023-01-10T15:15:51;15.30;;;4.07;;
12369;SDS011;6249;52.128;9.986;2023-01-10T15:19:17;19.87;;;3.73;;
12369;SDS011;6249;52.128;9.986;2023-01-10T15:22:52;15.73;;;4.27;;
12369;SDS011;6249;52.128;9.986;2023-01-10T15:26:26;15.43;;;3.57;;
12369;SDS011;6249;52.128;9.986;2023-01-10T15:29:49;15.93;;;4.53;;
12369;SDS011;6249;52.128;9.986;2023-01-10T15:33:13;19.70;;;4.20;;
12369;SDS011;6249;52.128;9.986;2023-01-10T15:36:36;21.07;;;3.70;;
12369;SDS011;6249;52.128;9.986;2023-01-10T15:40:06;18.80;;;3.70;;
12369;SDS011;6249;52.128;9.986;2023-01-10T15:43:41;14.60;;;3.80;;
12369;SDS011;6249;52.128;9.986;2023-01-10T15:47:05;14.07;;;3.20;;
12369;SDS011;6249;52.128;9.986;2023-01-10T15:50:53;16.97;;;3.00;;
12369;SDS011;6249;52.128;9.986;2023-01-10T15:57:41;16.93;;;3.67;;
12369;SDS011;6249;52.128;9.986;2023-01-10T16:01:02;16.30;;;4.03;;
12369;SDS011;6249;52.128;9.986;2023-01-10T16:04:29;12.43;;;3.17;;
12369;SDS011;6249;52.128;9.986;2023-01-10T16:07:53;20.77;;;2.70;;
12369;SDS011;6249;52.128;9.986;2023-01-10T16:11:18;11.43;;;2.87;;
12369;SDS011;6249;52.128;9.986;2023-01-10T16:15:26;22.43;;;5.90;;
12369;SDS011;6249;52.128;9.986;2023-01-10T16:18:49;22.87;;;5.40;;
12369;SDS011;6249;52.128;9.986;2023-01-10T16:22:14;11.53;;;3.77;;
12369;SDS011;6249;52.128;9.986;2023-01-10T16:25:39;25.13;;;6.70;;
12369;SDS011;6249;52.128;9.986;2023-01-10T16:29:08;15.97;;;3.40;;
12369;SDS011;6249;52.128;9.986;2023-01-10T16:32:29;19.63;;;5.43;;
12369;SDS011;6249;52.128;9.986;2023-01-10T16:35:54;21.60;;;3.40;;
12369;SDS011;6249;52.128;9.986;2023-01-10T16:39:19;13.60;;;3.30;;
12369;SDS011;6249;52.128;9.986;2023-01-10T16:42:41;11.20;;;2.87;;
12369;SDS011;6249;52.128;9.986;2023-01-10T16:46:21;23.93;;;4.53;;
12369;SDS011;6249;52.128;9.986;2023-01-10T16:49:42;20.20;;;2.87;;
12369;SDS011;6249;52.128;9.986;2023-01-10T16:53:02;13.60;;;2.40;;
12369;SDS011;6249;52.128;9.986;2023-01-10T16:56:28;24.27;;;4.37;;
12369;SDS011;6249;52.128;9.986;2023-01-10T16:59:49;19.57;;;2.90;;
12369;SDS011;6249;52.128;9.986;2023-01-10T17:03:11;19.33;;;2.83;;
12369;SDS011;6249;52.128;9.986;2023-01-10T17:06:42;15.83;;;2.47;;
12369;SDS011;6249;52.128;9.986;2023-01-10T17:10:03;10.47;;;3.00;;
12369;SDS011;6249;52.128;9.986;2023-01-10T17:13:28;20.57;;;2.90;;
12369;SDS011;6249;52.128;9.986;2023-01-10T17:16:55;17.40;;;2.90;;
12369;SDS011;6249;52.128;9.986;2023-01-10T17:20:16;18.13;;;2.70;;
12369;SDS011;6249;52.128;9.986;2023-01-10T17:23:37;13.43;;;2.00;;
12369;SDS011;6249;52.128;9.986;2023-01-10T17:27:00;17.13;;;3.10;;
12369;SDS011;6249;52.128;9.986;2023-01-10T17:30:21;18.13;;;2.77;;
12369;SDS011;6249;52.128;9.986;2023-01-10T17:33:41;14.87;;;3.57;;
12369;SDS011;6249;52.128;9.986;2023-01-10T17:37:04;12.27;;;2.63;;
12369;SDS011;6249;52.128;9.986;2023-01-10T17:40:25;16.23;;;3.00;;
12369;SDS011;6249;52.128;9.986;2023-01-10T17:43:45;16.17;;;2.60;;
12369;SDS011;6249;52.128;9.986;2023-01-10T17:47:06;26.13;;;3.70;;
12369;SDS011;6249;52.128;9.986;2023-01-10T17:50:28;10.23;;;2.20;;
12369;SDS011;6249;52.128;9.986;2023-01-10T17:53:52;19.67;;;2.60;;
12369;SDS011;6249;52.128;9.986;2023-01-10T17:57:16;10.17;;;2.20;;
12369;SDS011;6249;52.128;9.986;2023-01-10T18:00:39;14.33;;;2.93;;
12369;SDS011;6249;52.128;9.986;2023-01-10T18:04:00;10.53;;;2.43;;
12369;SDS011;6249;52.128;9.986;2023-01-10T18:07:20;12.40;;;2.60;;
12369;SDS011;6249;52.128;9.986;2023-01-10T18:10:44;15.30;;;2.70;;
12369;SDS011;6249;52.128;9.986;2023-01-10T18:14:09;26.80;;;3.80;;
12369;SDS011;6249;52.128;9.986;2023-01-10T18:17:51;15.53;;;2.50;;
12369;SDS011;6249;52.128;9.986;2023-01-10T18:21:15;9.20;;;1.90;;
12369;SDS011;6249;52.128;9.986;2023-01-10T18:24:38;21.63;;;4.67;;
12369;SDS011;6249;52.128;9.986;2023-01-10T18:27:59;17.70;;;3.40;;
12369;SDS011;6249;52.128;9.986;2023-01-10T18:31:22;10.13;;;2.30;;
12369;SDS011;6249;52.128;9.986;2023-01-10T18:34:42;16.47;;;2.80;;
12369;SDS011;6249;52.128;9.986;2023-01-10T18:38:03;17.73;;;3.23;;
12369;SDS011;6249;52.128;9.986;2023-01-10T18:41:26;15.83;;;2.20;;
12369;SDS011;6249;52.128;9.986;2023-01-10T18:44:47;11.03;;;2.67;;
12369;SDS011;6249;52.128;9.986;2023-01-10T18:48:08;17.00;;;3.40;;
12369;SDS011;6249;52.128;9.986;2023-01-10T18:51:33;18.07;;;2.97;;
12369;SDS011;6249;52.128;9.986;2023-01-10T18:54:53;19.53;;;2.90;;
12369;SDS011;6249;52.128;9.986;2023-01-10T18:58:16;16.20;;;3.50;;
12369;SDS011;6249;52.128;9.986;2023-01-10T19:01:36;24.87;;;2.50;;
12369;SDS011;6249;52.128;9.986;2023-01-10T19:04:57;10.90;;;2.57;;
12369;SDS011;6249;52.128;9.986;2023-01-10T19:08:20;14.60;;;2.40;;
12369;SDS011;6249;52.128;9.986;2023-01-10T19:11:40;24.03;;;3.43;;
12369;SDS011;6249;52.128;9.986;2023-01-10T19:15:01;13.90;;;3.00;;
12369;SDS011;6249;52.128;9.986;2023-01-10T19:18:24;19.00;;;2.77;;
12369;SDS011;6249;52.128;9.986;2023-01-10T19:21:45;16.00;;;2.50;;
12369;SDS011;6249;52.128;9.986;2023-01-10T19:25:07;10.57;;;2.70;;
12369;SDS011;6249;52.128;9.986;2023-01-10T19:28:28;19.43;;;3.60;;
12369;SDS011;6249;52.128;9.986;2023-01-10T19:31:52;18.10;;;4.83;;
12369;SDS011;6249;52.128;9.986;2023-01-10T19:35:12;9.90;;;2.60;;
12369;SDS011;6249;52.128;9.986;2023-01-10T19:38:33;12.83;;;2.90;;
12369;SDS011;6249;52.128;9.986;2023-01-10T19:41:53;16.83;;;2.77;;
12369;SDS011;6249;52.128;9.986;2023-01-10T19:45:16;20.13;;;4.17;;
12369;SDS011;6249;52.128;9.986;2023-01-10T19:48:39;16.10;;;3.40;;
12369;SDS011;6249;52.128;9.986;2023-01-10T19:52:00;24.30;;;3.70;;
12369;SDS011;6249;52.128;9.986;2023-01-10T19:55:23;22.30;;;3.50;;
12369;SDS011;6249;52.128;9.986;2023-01-10T19:58:44;22.70;;;3.77;;
12369;SDS011;6249;52.128;9.986;2023-01-10T20:02:05;14.63;;;3.87;;
12369;SDS011;6249;52.128;9.986;2023-01-10T20:05:25;24.83;;;3.90;;
12369;SDS011;6249;52.128;9.986;2023-01-10T20:08:46;21.70;;;4.40;;
12369;SDS011;6249;52.128;9.986;2023-01-10T20:12:10;25.83;;;3.63;;
12369;SDS011;6249;52.128;9.986;2023-01-10T20:15:32;26.83;;;5.07;;
12369;SDS011;6249;52.128;9.986;2023-01-10T20:18:53;18.93;;;4.30;;
12369;SDS011;6249;52.128;9.986;2023-01-10T20:22:16;12.67;;;3.90;;
12369;SDS011;6249;52.128;9.986;2023-01-10T20:25:37;14.73;;;4.20;;
12369;SDS011;6249;52.128;9.986;2023-01-10T20:29:01;27.73;;;5.40;;
12369;SDS011;6249;52.128;9.986;2023-01-10T20:32:24;16.03;;;3.83;;
12369;SDS011;6249;52.128;9.986;2023-01-10T20:35:52;27.80;;;5.07;;
12369;SDS011;6249;52.128;9.986;2023-01-10T20:39:22;14.40;;;4.43;;
12369;SDS011;6249;52.128;9.986;2023-01-10T20:42:49;18.63;;;4.30;;
12369;SDS011;6249;52.128;9.986;2023-01-10T20:46:13;22.67;;;4.57;;
12369;SDS011;6249;52.128;9.986;2023-01-10T20:49:38;15.90;;;3.60;;
12369;SDS011;6249;52.128;9.986;2023-01-10T20:53:00;14.23;;;3.67;;
12369;SDS011;6249;52.128;9.986;2023-01-10T20:56:22;23.03;;;4.00;;
12369;SDS011;6249;52.128;9.986;2023-01-10T20:59:46;13.80;;;3.60;;
12369;SDS011;6249;52.128;9.986;2023-01-10T21:03:07;18.17;;;4.43;;
12369;SDS011;6249;52.128;9.986;2023-01-10T21:06:28;19.13;;;3.53;;
12369;SDS011;6249;52.128;9.986;2023-01-10T21:09:50;15.13;;;3.60;;
12369;SDS011;6249;52.128;9.986;2023-01-10T21:13:11;24.17;;;3.53;;
12369;SDS011;6249;52.128;9.986;2023-01-10T21:16:32;22.63;;;3.70;;
12369;SDS011;6249;52.128;9.986;2023-01-10T21:19:52;11.17;;;2.77;;
12369;SDS011;6249;52.128;9.986;2023-01-10T21:23:15;14.83;;;3.00;;
12369;SDS011;6249;52.128;9.986;2023-01-10T21:26:40;17.77;;;4.13;;
12369;SDS011;6249;52.128;9.986;2023-01-10T21:30:00;17.10;;;3.07;;
12369;SDS011;6249;52.128;9.986;2023-01-10T21:33:21;29.13;;;3.90;;
12369;SDS011;6249;52.128;9.986;2023-01-10T21:36:44;24.67;;;3.60;;
12369;SDS011;6249;52.128;9.986;2023-01-10T21:40:07;18.53;;;3.40;;
12369;SDS011;6249;52.128;9.986;2023-01-10T21:43:31;15.53;;;3.30;;
12369;SDS011;6249;52.128;9.986;2023-01-10T21:46:51;14.17;;;3.30;;
12369;SDS011;6249;52.128;9.986;2023-01-10T21:50:14;14.47;;;2.50;;
12369;SDS011;6249;52.128;9.986;2023-01-10T21:53:35;20.03;;;3.10;;
12369;SDS011;6249;52.128;9.986;2023-01-10T21:57:02;13.37;;;2.10;;
12369;SDS011;6249;52.128;9.986;2023-01-10T22:00:24;20.13;;;3.50;;
12369;SDS011;6249;52.128;9.986;2023-01-10T22:03:50;20.27;;;3.10;;
12369;SDS011;6249;52.128;9.986;2023-01-10T22:07:13;13.23;;;2.80;;
12369;SDS011;6249;52.128;9.986;2023-01-10T22:10:34;9.93;;;2.77;;
12369;SDS011;6249;52.128;9.986;2023-01-10T22:13:55;13.70;;;2.40;;
12369;SDS011;6249;52.128;9.986;2023-01-10T22:17:18;20.93;;;3.27;;
12369;SDS011;6249;52.128;9.986;2023-01-10T22:20:42;15.73;;;2.73;;
12369;SDS011;6249;52.128;9.986;2023-01-10T22:24:03;23.13;;;3.93;;
12369;SDS011;6249;52.128;9.986;2023-01-10T22:27:26;13.77;;;1.97;;
12369;SDS011;6249;52.128;9.986;2023-01-10T22:30:49;14.07;;;2.67;;
12369;SDS011;6249;52.128;9.986;2023-01-10T22:34:09;10.63;;;2.80;;